Altoona Blair County Airport
KAOO : rendu visible

Aérodrome :











RETROUVEZ-NOUS SUR...

 
LOGIN :

S'inscrire | Disclaimer

   EN    FR    IT 

 









Légende :    VFR   VFR Marginal   IFR   IFR Intensif   IFR Très Intensif
Visi : 
Plafond : 
>= 8 km
>= 3000ft
5 à 8 km
1000 à 3000 ft
1500m à 5 km
500 à 1000 ft
800 à 1500m
200 à 500 ft
< 800m
< 200 ft
Symboles :   Orages  Brouillard  Fortes neiges  Fortes précipitations  Vent > 20 kt






- Altitude de l'aérodrome : 1503 ft
- Code IATA : AOO


KAOO - Altoona Blair County

DERNIER METAR :
  • 300153Z AUTO 30010KT 10SM SCT060 BKN075 19/13 A2996 RMK AO2 SLP135 T01890133

METARs EXPIRÉS :
  • 300053Z AUTO 31014G25KT 10SM FEW070 SCT090 SCT110 19/14 A2994 RMK AO2 WSHFT 0005 LTG DSNT E-S RAB17E32 SLP128 P0000 T01940144
  • 292353Z AUTO 26011KT 10SM OVC100 23/15 A2992 RMK AO2 RAE04 SLP119 P0000 60000 T02330150 10272 20222 53011

TAF KAOO
Valide du 30 à 00h jusqu'au 31 à 00h UTC


292329Z 3000/3024 25010G20KT P6SM VCSH SCT050 BKN100
TEMPO 3000/3004 30015G28KT 2SM +TSRA BR BKN035CB
FM300400 28007KT P6SM OVC025
FM301200 30010G20KT P6SM BKN040
FIR KZOB / Amérique du Nord



MET'MAP, la Météo Aéronautique d'un coup d'oeil ! - Copyright ORBIFLY Décembre 2007 - Disclaimer

ORBIFLY MET'MAP TEAM :

Programmation & Développement : Alexandra Zaïnal
Sur une idée originale de : Baudouin d'Aumeries
Assistance à la programmation : Marc-Olivier Méhu
Soutien technique & logistique : Manuel Goepfert

Contact : metmap@orbifly.com




SOURCES & CREDITS :

   NOAA       Earth
Advisory